createdAt,value
2018-12-16T00:01:30.285Z,85.50
2018-12-16T00:03:57.828Z,85.50
2018-12-16T00:06:25.352Z,85.60
2018-12-16T00:08:52.874Z,85.50
2018-12-16T00:11:20.397Z,85.50
2018-12-16T00:13:47.911Z,85.40
2018-12-16T00:16:15.443Z,85.40
2018-12-16T00:18:42.988Z,85.50
2018-12-16T00:21:10.503Z,85.50
2018-12-16T00:23:38.171Z,85.40
2018-12-16T00:26:05.681Z,85.50
2018-12-16T00:28:33.230Z,85.40
2018-12-16T00:31:00.740Z,85.70
2018-12-16T00:33:28.249Z,85.50
2018-12-16T00:35:55.775Z,85.50
2018-12-16T00:38:23.305Z,85.50
2018-12-16T00:40:50.832Z,85.50
2018-12-16T00:43:18.402Z,85.40
2018-12-16T00:45:45.911Z,85.40
2018-12-16T00:48:13.436Z,85.40
2018-12-16T00:50:40.974Z,85.30
2018-12-16T00:53:08.509Z,85.40
2018-12-16T00:55:36.055Z,85.40
2018-12-16T00:58:03.712Z,85.20
2018-12-16T01:00:31.500Z,85.20
2018-12-16T01:02:59.033Z,85.30
2018-12-16T01:05:26.561Z,85.30
2018-12-16T01:07:54.096Z,85.40
2018-12-16T01:10:21.615Z,85.40
2018-12-16T01:12:49.157Z,85.50
2018-12-16T01:15:16.698Z,85.60
2018-12-16T01:17:44.230Z,85.60
2018-12-16T01:20:11.772Z,85.70
2018-12-16T01:22:43.400Z,85.80
2018-12-16T01:25:08.847Z,85.80
2018-12-16T01:27:36.407Z,85.80
2018-12-16T01:30:04.934Z,85.80
2018-12-16T01:32:32.454Z,85.80
2018-12-16T01:34:59.974Z,85.80
2018-12-16T01:37:27.503Z,85.70
2018-12-16T01:39:55.019Z,86.00
2018-12-16T01:42:22.691Z,85.90
2018-12-16T01:44:50.216Z,86.10
2018-12-16T01:47:17.741Z,86.10
2018-12-16T01:49:45.266Z,86.00
2018-12-16T01:52:12.798Z,86.10
2018-12-16T01:54:40.310Z,86.00
2018-12-16T01:57:07.821Z,86.10
2018-12-16T01:59:35.344Z,86.80
2018-12-16T02:02:02.868Z,86.70
2018-12-16T02:04:30.394Z,86.10
2018-12-16T02:06:57.927Z,86.10
2018-12-16T02:09:25.445Z,86.40
2018-12-16T02:11:53.073Z,86.40
2018-12-16T02:14:20.604Z,86.70
2018-12-16T02:16:48.131Z,87.60
2018-12-16T02:19:15.671Z,87.00
2018-12-16T02:21:43.199Z,86.90
2018-12-16T02:24:10.730Z,86.90
2018-12-16T02:26:38.250Z,86.90
2018-12-16T02:29:05.790Z,86.80
2018-12-16T02:31:33.337Z,86.90
2018-12-16T02:34:00.878Z,86.80
2018-12-16T02:36:28.411Z,86.80
2018-12-16T02:38:55.958Z,86.90
2018-12-16T02:41:23.474Z,86.80
2018-12-16T02:43:51.108Z,86.90
2018-12-16T02:46:18.645Z,86.80
2018-12-16T02:48:46.162Z,87.00
2018-12-16T02:51:13.681Z,86.90
2018-12-16T02:53:41.209Z,87.40
2018-12-16T02:56:08.714Z,87.10
2018-12-16T02:58:36.549Z,87.80
2018-12-16T03:01:04.069Z,87.40
2018-12-16T03:03:31.598Z,87.30
2018-12-16T03:05:59.437Z,87.40
2018-12-16T03:08:26.961Z,87.50
2018-12-16T03:10:54.483Z,87.60
2018-12-16T03:13:22.026Z,87.60
2018-12-16T03:15:49.571Z,87.40
2018-12-16T03:18:18.298Z,87.90
2018-12-16T03:20:45.813Z,87.30
2018-12-16T03:23:13.353Z,87.10
2018-12-16T03:25:40.853Z,87.30
2018-12-16T03:28:08.373Z,87.30
2018-12-16T03:30:35.917Z,87.30
2018-12-16T03:33:03.453Z,87.40
2018-12-16T03:35:30.992Z,87.70
2018-12-16T03:37:58.652Z,87.30
2018-12-16T03:40:26.173Z,87.40
2018-12-16T03:42:53.729Z,87.70
2018-12-16T03:45:21.253Z,87.80
2018-12-16T03:47:48.774Z,87.60
2018-12-16T03:50:16.414Z,87.90
2018-12-16T03:52:43.950Z,87.90
2018-12-16T03:55:11.489Z,87.70
2018-12-16T03:57:39.011Z,87.90
2018-12-16T04:00:07.014Z,87.70
2018-12-16T04:02:34.558Z,87.70
2018-12-16T04:05:02.100Z,87.50
2018-12-16T04:07:29.620Z,87.40
2018-12-16T04:09:57.133Z,87.30
2018-12-16T04:12:24.637Z,87.30
2018-12-16T04:14:52.173Z,87.60
2018-12-16T04:17:19.707Z,87.70
2018-12-16T04:19:47.242Z,87.70
2018-12-16T04:22:14.776Z,87.70
2018-12-16T04:24:42.301Z,87.10
2018-12-16T04:27:09.843Z,87.20
2018-12-16T04:29:37.380Z,87.30
2018-12-16T04:32:05.014Z,87.40
2018-12-16T04:34:32.547Z,87.20
2018-12-16T04:37:00.072Z,87.20
2018-12-16T04:39:27.600Z,87.20
2018-12-16T04:41:55.405Z,87.20
2018-12-16T04:44:22.937Z,87.20
2018-12-16T04:46:50.481Z,87.10
2018-12-16T04:49:18.004Z,86.90
2018-12-16T04:51:45.540Z,87.00
2018-12-16T04:54:13.072Z,86.70
2018-12-16T04:56:40.606Z,87.20
2018-12-16T04:59:08.127Z,86.90
2018-12-16T05:01:35.652Z,86.90
2018-12-16T05:04:03.181Z,86.80
2018-12-16T05:06:30.713Z,86.60
2018-12-16T05:08:58.219Z,86.50
2018-12-16T05:11:25.729Z,86.50
2018-12-16T05:13:53.251Z,86.60
2018-12-16T05:16:20.775Z,86.90
2018-12-16T05:18:48.288Z,86.60
2018-12-16T05:21:15.819Z,86.50
2018-12-16T05:23:43.333Z,86.60
2018-12-16T05:26:10.855Z,86.60
2018-12-16T05:28:38.378Z,86.50
2018-12-16T05:31:05.901Z,86.30
2018-12-16T05:33:33.415Z,86.30
2018-12-16T05:36:00.921Z,86.20
2018-12-16T05:38:28.473Z,86.20
2018-12-16T05:40:56.003Z,86.10
2018-12-16T05:43:23.554Z,85.90
2018-12-16T05:45:51.079Z,85.90
2018-12-16T05:48:18.614Z,85.70
2018-12-16T05:50:46.158Z,85.40
2018-12-16T05:53:13.689Z,85.30
2018-12-16T05:55:41.517Z,85.30
2018-12-16T05:58:09.044Z,85.20
2018-12-16T06:00:36.567Z,85.20
2018-12-16T06:03:04.107Z,85.10
2018-12-16T06:05:31.635Z,85.00
2018-12-16T06:08:00.093Z,84.90
2018-12-16T06:10:28.419Z,85.30
2018-12-16T06:12:55.952Z,84.70
2018-12-16T06:15:23.477Z,84.70
2018-12-16T06:17:51.018Z,84.80
2018-12-16T06:20:18.564Z,84.90
2018-12-16T06:22:46.100Z,84.90
2018-12-16T06:25:13.654Z,84.90
2018-12-16T06:27:41.177Z,84.80
2018-12-16T06:30:09.438Z,85.00
2018-12-16T06:32:36.954Z,85.00
2018-12-16T06:35:04.739Z,85.20
2018-12-16T06:37:32.264Z,85.40
2018-12-16T06:39:59.813Z,85.50
2018-12-16T06:42:27.349Z,85.50
2018-12-16T06:44:54.869Z,85.60
2018-12-16T06:47:22.525Z,85.70
2018-12-16T06:49:50.076Z,85.70
2018-12-16T06:52:17.588Z,85.80
2018-12-16T06:54:45.145Z,85.90
2018-12-16T06:57:12.680Z,86.00
2018-12-16T06:59:40.198Z,86.00
2018-12-16T07:02:07.735Z,86.00
2018-12-16T07:04:35.263Z,86.20
2018-12-16T07:07:02.801Z,86.20
2018-12-16T07:09:30.406Z,86.10
2018-12-16T07:11:57.959Z,86.10
2018-12-16T07:14:25.497Z,86.10
2018-12-16T07:16:53.087Z,86.10
2018-12-16T07:19:20.693Z,86.10
2018-12-16T07:21:48.474Z,86.20
2018-12-16T07:24:16.006Z,86.20
2018-12-16T07:26:43.778Z,86.20
2018-12-16T07:29:11.308Z,86.30
2018-12-16T07:31:38.849Z,86.20
2018-12-16T07:34:06.374Z,86.30
2018-12-16T07:36:34.065Z,86.40
2018-12-16T07:39:01.588Z,86.40
2018-12-16T07:41:29.175Z,86.40
2018-12-16T07:43:56.801Z,86.40
2018-12-16T07:46:24.385Z,86.40
2018-12-16T07:48:52.108Z,86.40
2018-12-16T07:51:19.624Z,86.30
2018-12-16T07:53:47.419Z,86.30
2018-12-16T07:56:14.952Z,86.40
2018-12-16T07:58:42.568Z,86.30
2018-12-16T08:01:10.296Z,86.40
2018-12-16T08:03:37.843Z,86.20
2018-12-16T08:06:05.371Z,86.20
2018-12-16T08:08:32.907Z,86.20
2018-12-16T08:11:00.452Z,86.20
2018-12-16T08:13:27.988Z,86.40
2018-12-16T08:15:55.527Z,86.30
2018-12-16T08:18:23.046Z,86.30
2018-12-16T08:20:50.583Z,86.20
2018-12-16T08:23:18.111Z,86.20
2018-12-16T08:25:45.616Z,86.30
2018-12-16T08:28:13.143Z,86.20
2018-12-16T08:30:40.770Z,86.20
2018-12-16T08:33:08.321Z,86.00
2018-12-16T08:35:35.853Z,86.10
2018-12-16T08:38:03.414Z,85.90
2018-12-16T08:40:30.976Z,86.00
2018-12-16T08:42:58.511Z,86.30
2018-12-16T08:45:26.065Z,86.10
2018-12-16T08:47:53.603Z,86.10
2018-12-16T08:50:21.123Z,85.80
2018-12-16T08:52:48.657Z,85.90
2018-12-16T08:55:16.209Z,85.90
2018-12-16T08:57:43.741Z,85.70
2018-12-16T09:00:11.493Z,85.60
2018-12-16T09:02:39.031Z,85.70
2018-12-16T09:05:06.753Z,85.70
2018-12-16T09:07:37.352Z,85.80
2018-12-16T09:10:08.053Z,85.80
2018-12-16T09:12:35.760Z,85.70
2018-12-16T09:15:04.692Z,85.70
2018-12-16T09:17:32.215Z,85.60
2018-12-16T09:19:59.751Z,85.80
2018-12-16T09:22:27.265Z,85.60
2018-12-16T09:24:54.766Z,85.60
2018-12-16T09:27:22.315Z,85.60
2018-12-16T09:29:49.845Z,85.30
2018-12-16T09:32:17.370Z,85.50
2018-12-16T09:34:44.901Z,85.00
2018-12-16T09:37:12.429Z,85.20
2018-12-16T09:39:39.962Z,85.10
2018-12-16T09:42:07.495Z,85.10
2018-12-16T09:44:35.728Z,85.10
2018-12-16T09:47:03.364Z,85.20
2018-12-16T09:49:30.937Z,85.10
2018-12-16T09:51:58.568Z,85.10
2018-12-16T09:54:26.096Z,85.00
2018-12-16T09:56:53.634Z,85.00
2018-12-16T09:59:21.154Z,84.90
2018-12-16T10:01:48.678Z,84.80
2018-12-16T10:04:16.443Z,84.80
2018-12-16T10:06:43.978Z,84.70
2018-12-16T10:09:11.526Z,84.50
2018-12-16T10:11:39.055Z,84.20
2018-12-16T10:14:06.607Z,84.10
2018-12-16T10:16:34.140Z,84.20
2018-12-16T10:19:01.672Z,84.20
2018-12-16T10:21:29.203Z,84.10
2018-12-16T10:23:56.741Z,84.10
2018-12-16T10:26:24.244Z,84.00
2018-12-16T10:28:51.777Z,83.30
2018-12-16T10:31:19.301Z,83.60
2018-12-16T10:33:46.809Z,83.20
2018-12-16T10:36:14.329Z,83.50
2018-12-16T10:38:41.830Z,83.50
2018-12-16T10:41:09.354Z,84.40
2018-12-16T10:43:36.898Z,83.50
2018-12-16T10:46:04.427Z,82.60
2018-12-16T10:48:31.930Z,83.20
2018-12-16T10:50:59.439Z,83.20
2018-12-16T10:53:27.011Z,83.00
2018-12-16T10:55:54.526Z,83.10
2018-12-16T10:58:22.041Z,83.20
2018-12-16T11:00:55.202Z,83.00
2018-12-16T11:03:22.733Z,82.80
2018-12-16T11:05:50.286Z,82.60
2018-12-16T11:08:17.795Z,82.80
2018-12-16T11:10:45.390Z,82.70
2018-12-16T11:13:12.960Z,82.80
2018-12-16T11:15:40.494Z,82.70
2018-12-16T11:18:08.020Z,82.70
2018-12-16T11:20:35.546Z,82.20
2018-12-16T11:23:03.050Z,82.40
2018-12-16T11:25:31.493Z,83.20
2018-12-16T11:27:59.031Z,82.80
2018-12-16T11:30:26.547Z,82.70
2018-12-16T11:32:54.081Z,82.50
2018-12-16T11:35:21.621Z,82.40
2018-12-16T11:37:49.167Z,82.40
2018-12-16T11:40:16.691Z,82.30
2018-12-16T11:42:44.210Z,83.30
2018-12-16T11:45:11.742Z,82.80
2018-12-16T11:47:39.275Z,82.90
2018-12-16T11:50:07.011Z,82.80
2018-12-16T11:52:34.539Z,82.80
2018-12-16T11:55:02.082Z,82.90
2018-12-16T11:57:29.632Z,82.60
2018-12-16T11:59:57.163Z,82.60
2018-12-16T12:02:24.689Z,82.90
2018-12-16T12:04:52.563Z,82.90
2018-12-16T12:07:20.135Z,83.10
2018-12-16T12:09:47.694Z,82.90
2018-12-16T12:12:15.233Z,83.00
2018-12-16T12:14:42.764Z,83.10
2018-12-16T12:17:10.274Z,82.80
2018-12-16T12:19:38.411Z,83.30
2018-12-16T12:22:05.936Z,82.60
2018-12-16T12:24:33.474Z,82.90
2018-12-16T12:27:00.985Z,83.10
2018-12-16T12:29:28.503Z,83.10
2018-12-16T12:31:56.035Z,83.10
2018-12-16T12:34:23.816Z,83.10
2018-12-16T12:36:51.344Z,83.10
2018-12-16T12:39:18.879Z,83.20
2018-12-16T12:41:46.407Z,83.40
2018-12-16T12:44:13.928Z,83.60
2018-12-16T12:46:41.714Z,83.80
2018-12-16T12:49:09.221Z,83.90
2018-12-16T12:51:36.757Z,83.90
2018-12-16T12:54:04.279Z,83.90
2018-12-16T12:56:31.805Z,84.10
2018-12-16T12:58:59.327Z,84.00
2018-12-16T13:01:26.851Z,84.10
2018-12-16T13:03:54.389Z,84.10
2018-12-16T13:06:21.915Z,84.10
2018-12-16T13:08:49.431Z,84.20
2018-12-16T13:11:16.959Z,84.30
2018-12-16T13:13:44.561Z,84.50
2018-12-16T13:16:12.100Z,84.40
2018-12-16T13:18:39.641Z,84.50
2018-12-16T13:21:07.152Z,84.50
2018-12-16T13:23:34.655Z,84.70
2018-12-16T13:26:02.612Z,84.80
2018-12-16T13:28:30.148Z,84.90
2018-12-16T13:30:57.801Z,85.00
2018-12-16T13:33:25.398Z,85.20
2018-12-16T13:35:52.931Z,85.90
2018-12-16T13:38:20.494Z,85.40
2018-12-16T13:40:48.033Z,85.60
2018-12-16T13:43:15.575Z,85.60
2018-12-16T13:45:43.084Z,85.50
2018-12-16T13:48:10.675Z,85.80
2018-12-16T13:50:38.212Z,86.40
2018-12-16T13:53:05.729Z,85.80
2018-12-16T13:55:33.488Z,85.80
2018-12-16T13:58:01.121Z,85.90
2018-12-16T14:00:28.649Z,85.90
2018-12-16T14:02:56.183Z,86.10
2018-12-16T14:05:23.710Z,86.10
2018-12-16T14:07:51.224Z,86.20
2018-12-16T14:10:19.092Z,87.00
2018-12-16T14:12:46.598Z,86.50
2018-12-16T14:15:14.227Z,86.50
2018-12-16T14:17:41.750Z,86.60
2018-12-16T14:20:09.358Z,86.40
2018-12-16T14:22:36.883Z,86.30
2018-12-16T14:25:05.342Z,86.30
2018-12-16T14:27:32.868Z,86.40
2018-12-16T14:30:00.392Z,86.30
2018-12-16T14:32:27.933Z,86.30
2018-12-16T14:34:55.445Z,86.30
2018-12-16T14:37:22.954Z,86.20
2018-12-16T14:39:50.477Z,86.50
2018-12-16T14:42:18.009Z,86.50
2018-12-16T14:44:45.521Z,86.40
2018-12-16T14:47:13.037Z,86.40
2018-12-16T14:49:40.549Z,86.20
2018-12-16T14:52:08.186Z,86.30
2018-12-16T14:54:35.689Z,86.40
2018-12-16T14:57:03.231Z,86.30
2018-12-16T14:59:30.745Z,86.50
2018-12-16T15:01:58.271Z,87.30
2018-12-16T15:04:25.909Z,86.50
2018-12-16T15:06:53.455Z,87.20
2018-12-16T15:09:21.090Z,86.70
2018-12-16T15:11:48.642Z,86.90
2018-12-16T15:14:16.170Z,86.80
2018-12-16T15:16:43.681Z,87.00
2018-12-16T15:19:11.195Z,87.00
2018-12-16T15:21:38.927Z,87.00
2018-12-16T15:24:06.457Z,86.90
2018-12-16T15:26:33.968Z,86.90
2018-12-16T15:29:01.487Z,87.00
2018-12-16T15:31:29.020Z,87.00
2018-12-16T15:33:56.551Z,86.90
2018-12-16T15:36:24.065Z,86.80
2018-12-16T15:38:51.679Z,86.90
2018-12-16T15:41:19.185Z,86.80
2018-12-16T15:43:46.700Z,86.70
2018-12-16T15:46:14.246Z,86.70
2018-12-16T15:48:41.771Z,86.70
2018-12-16T15:51:09.274Z,86.70
2018-12-16T15:53:37.146Z,86.60
2018-12-16T15:56:09.375Z,86.60
2018-12-16T15:58:34.230Z,86.70
2018-12-16T16:01:01.771Z,86.70
2018-12-16T16:03:29.295Z,86.60
2018-12-16T16:05:56.825Z,86.60
2018-12-16T16:08:24.349Z,86.70
2018-12-16T16:10:52.832Z,86.60
2018-12-16T16:13:20.604Z,86.40
2018-12-16T16:15:48.146Z,86.30
2018-12-16T16:18:15.692Z,86.30
2018-12-16T16:20:43.211Z,86.20
2018-12-16T16:23:10.742Z,86.80
2018-12-16T16:25:38.271Z,86.10
2018-12-16T16:28:05.805Z,86.10
2018-12-16T16:30:33.338Z,86.10
2018-12-16T16:33:00.868Z,86.20
2018-12-16T16:35:28.806Z,86.20
2018-12-16T16:38:00.590Z,86.20
2018-12-16T16:40:26.114Z,86.20
2018-12-16T16:42:53.679Z,86.10
2018-12-16T16:45:21.196Z,86.10
2018-12-16T16:47:48.733Z,86.00
2018-12-16T16:50:16.248Z,85.90
2018-12-16T16:52:43.773Z,86.00
2018-12-16T16:55:11.309Z,85.90
2018-12-16T16:57:38.831Z,85.90
2018-12-16T17:00:07.606Z,85.90
2018-12-16T17:02:35.133Z,85.80
2018-12-16T17:05:02.802Z,86.00
2018-12-16T17:07:30.314Z,86.60
2018-12-16T17:09:57.829Z,86.10
2018-12-16T17:12:25.362Z,86.00
2018-12-16T17:14:52.900Z,86.00
2018-12-16T17:17:20.431Z,86.00
2018-12-16T17:19:47.951Z,86.00
2018-12-16T17:22:15.591Z,86.00
2018-12-16T17:24:43.105Z,86.00
2018-12-16T17:27:10.613Z,85.90
2018-12-16T17:29:38.425Z,85.90
2018-12-16T17:32:05.952Z,85.90
2018-12-16T17:34:33.497Z,85.90
2018-12-16T17:37:01.044Z,85.60
2018-12-16T17:39:28.564Z,85.70
2018-12-16T17:41:56.098Z,85.60
2018-12-16T17:44:23.623Z,85.70
2018-12-16T17:46:51.139Z,85.50
2018-12-16T17:49:18.654Z,85.60
2018-12-16T17:51:46.219Z,85.60
2018-12-16T17:54:13.740Z,86.00
2018-12-16T17:56:41.281Z,85.60
2018-12-16T17:59:08.830Z,85.70
2018-12-16T18:01:38.067Z,85.70
2018-12-16T18:04:07.636Z,85.70
2018-12-16T18:06:35.152Z,85.50
2018-12-16T18:09:02.987Z,85.60
2018-12-16T18:11:31.074Z,85.50
2018-12-16T18:13:58.634Z,85.50
2018-12-16T18:16:26.155Z,85.70
2018-12-16T18:18:53.680Z,85.50
2018-12-16T18:21:21.228Z,85.60
2018-12-16T18:23:48.742Z,85.80
2018-12-16T18:26:16.393Z,85.90
2018-12-16T18:28:44.119Z,85.80
2018-12-16T18:31:11.737Z,85.80
2018-12-16T18:33:39.264Z,85.70
2018-12-16T18:36:06.849Z,85.70
2018-12-16T18:38:34.498Z,85.70
2018-12-16T18:41:02.016Z,85.80
2018-12-16T18:43:29.661Z,85.80
2018-12-16T18:45:57.213Z,85.70
2018-12-16T18:48:24.748Z,85.80
2018-12-16T18:50:52.263Z,85.70
2018-12-16T18:53:19.823Z,85.80
2018-12-16T18:55:47.361Z,85.80
2018-12-16T18:58:14.890Z,85.60
2018-12-16T19:00:42.393Z,85.60
2018-12-16T19:03:09.916Z,85.70
2018-12-16T19:05:37.439Z,85.70
2018-12-16T19:08:04.959Z,85.70
2018-12-16T19:10:32.476Z,85.70
2018-12-16T19:12:59.993Z,85.70
2018-12-16T19:15:27.801Z,85.70
2018-12-16T19:17:55.331Z,85.50
2018-12-16T19:20:22.833Z,85.60
2018-12-16T19:22:50.349Z,85.60
2018-12-16T19:25:17.880Z,85.60
2018-12-16T19:27:45.417Z,85.70
2018-12-16T19:30:12.947Z,85.70
2018-12-16T19:32:40.467Z,85.70
2018-12-16T19:35:08.120Z,85.60
2018-12-16T19:37:35.650Z,85.60
2018-12-16T19:40:03.701Z,85.60
2018-12-16T19:42:31.210Z,85.70
2018-12-16T19:44:58.758Z,85.60
2018-12-16T19:47:26.280Z,85.60
2018-12-16T19:49:53.796Z,85.60
2018-12-16T19:52:21.322Z,85.60
2018-12-16T19:54:49.259Z,85.60
2018-12-16T19:57:16.873Z,85.60
2018-12-16T19:59:44.408Z,85.60
2018-12-16T20:02:11.948Z,85.70
2018-12-16T20:04:45.114Z,85.70
2018-12-16T20:07:12.637Z,85.70
2018-12-16T20:09:40.160Z,85.70
2018-12-16T20:12:07.677Z,85.80
2018-12-16T20:14:35.219Z,85.80
2018-12-16T20:17:02.877Z,85.70
2018-12-16T20:19:30.426Z,85.80
2018-12-16T20:21:57.965Z,86.00
2018-12-16T20:24:26.278Z,86.10
2018-12-16T20:26:53.947Z,86.20
2018-12-16T20:29:21.487Z,86.20
2018-12-16T20:31:49.017Z,86.10
2018-12-16T20:34:16.560Z,86.10
2018-12-16T20:36:44.096Z,86.10
2018-12-16T20:39:11.640Z,86.20
2018-12-16T20:41:39.215Z,86.20
2018-12-16T20:44:06.766Z,86.20
2018-12-16T20:46:34.294Z,86.20
2018-12-16T20:49:01.844Z,86.20
2018-12-16T20:51:29.349Z,86.20
2018-12-16T20:53:56.868Z,86.20
2018-12-16T20:56:24.389Z,86.20
2018-12-16T20:58:51.930Z,86.20
2018-12-16T21:01:19.467Z,86.20
2018-12-16T21:03:47.016Z,86.20
2018-12-16T21:06:14.765Z,86.10
2018-12-16T21:08:42.326Z,86.20
2018-12-16T21:11:15.540Z,86.20
2018-12-16T21:13:48.803Z,86.20
2018-12-16T21:16:21.953Z,86.20
2018-12-16T21:18:49.570Z,86.20
2018-12-16T21:21:17.077Z,86.20
2018-12-16T21:23:44.595Z,86.20
2018-12-16T21:26:12.239Z,86.20
2018-12-16T21:28:39.791Z,86.20
2018-12-16T21:31:07.436Z,86.20
2018-12-16T21:33:34.970Z,86.30
2018-12-16T21:36:02.490Z,86.20
2018-12-16T21:38:30.015Z,86.20
2018-12-16T21:40:57.545Z,86.30
2018-12-16T21:43:25.075Z,86.20
2018-12-16T21:45:52.599Z,86.20
2018-12-16T21:48:20.125Z,86.20
2018-12-16T21:50:47.671Z,86.20
2018-12-16T21:53:15.205Z,86.20
2018-12-16T21:55:42.717Z,86.20
2018-12-16T21:58:10.296Z,86.20
2018-12-16T22:00:37.819Z,86.80
2018-12-16T22:03:05.340Z,86.10
2018-12-16T22:05:32.856Z,86.10
2018-12-16T22:08:00.358Z,86.20
2018-12-16T22:10:27.880Z,86.80
2018-12-16T22:12:55.403Z,86.10
2018-12-16T22:15:22.916Z,86.20
2018-12-16T22:17:50.455Z,86.20
2018-12-16T22:20:17.980Z,86.20
2018-12-16T22:22:45.508Z,86.20
2018-12-16T22:25:13.014Z,86.20
2018-12-16T22:27:40.625Z,86.80
2018-12-16T22:30:09.195Z,86.80
2018-12-16T22:32:36.706Z,86.20
2018-12-16T22:35:04.464Z,86.40
2018-12-16T22:37:31.983Z,86.30
2018-12-16T22:39:59.522Z,86.30
2018-12-16T22:42:27.037Z,86.30
2018-12-16T22:44:54.555Z,86.00
2018-12-16T22:47:22.090Z,85.90
2018-12-16T22:49:49.619Z,85.90
2018-12-16T22:52:17.130Z,85.90
2018-12-16T22:54:44.669Z,85.80
2018-12-16T22:57:12.217Z,85.70
2018-12-16T22:59:39.758Z,85.80
2018-12-16T23:02:07.292Z,85.60
2018-12-16T23:04:34.807Z,85.60
2018-12-16T23:07:02.350Z,85.60
2018-12-16T23:09:29.866Z,85.60
2018-12-16T23:11:57.375Z,85.50
2018-12-16T23:14:24.964Z,85.50
2018-12-16T23:16:53.525Z,85.50
2018-12-16T23:19:21.053Z,85.40
2018-12-16T23:21:48.576Z,85.30
2018-12-16T23:24:16.199Z,85.30
2018-12-16T23:26:43.716Z,85.00
2018-12-16T23:29:11.225Z,84.90
2018-12-16T23:31:38.754Z,84.80
2018-12-16T23:34:06.411Z,84.60
2018-12-16T23:36:33.942Z,84.50
2018-12-16T23:39:01.450Z,84.50
2018-12-16T23:41:28.976Z,84.30
2018-12-16T23:43:56.515Z,84.20
2018-12-16T23:46:24.054Z,84.20
2018-12-16T23:48:51.557Z,84.20
2018-12-16T23:51:19.076Z,84.20
2018-12-16T23:53:46.621Z,84.10
2018-12-16T23:56:14.155Z,84.50
2018-12-16T23:58:41.671Z,84.10
